Tiempo atmosférico en la estación meteorológica de Santiago de Compostela Aeropuerto, A Coruña (370 m.)



Fecha
DESCASC
Temp. máxima en grados centígrados (hora)
DESCASC
Temp. mínima en grados centígrados (hora)
DESCASC
Temp. media en grados centígrados
DESCASC
Racha de viento máxima en m/sg (hora)
DESCASC
Velocidad máxima media en intervalos de 10 minutos(hora)
DESCASC
Precipitaciones diarias en mm
DESCASC
Precipitaciones de 00:00 a 06:00 en mm
DESCASC
Precipitaciones de 06:00 a 12:00 en mm
DESCASC
Precipitaciones de 12:00 a 18:00 en mm
DESCASC
Precipitaciones de 18:00 a 24:00 en mm
DESCASC
20-10-2019 12.9 (14:50) 6.6 (09:00) 9.7 7.22 (16:20) 5.28 (17:00) 4.6 2.7 0.7 0.6 0.6
19-10-2019 12.4 (00:00) 8.5 (23:59) 10.4 7.22 (16:00) 4.17 (18:40) 24.5 4.3 10.3 5.2 4.7
18-10-2019 14.1 (15:30) 11 (00:00) 12.6 11.67 (19:50) 6.39 (19:50) 20.9 0.3 0.9 1.1 18.6
17-10-2019 15.5 (00:20) 10.9 (00:00) 13.2 9.72 (13:20) 5 (14:30) 0 0 0 0 0
16-10-2019 15.5 (22:20) 12.4 (00:00) 13.9 16.11 (10:30) 8.89 (02:20) 69.1 3.5 12.9 27.1 25.6
15-10-2019 15.3 (14:50) 8.9 (00:00) 12.1 13.89 (14:50) 7.5 (14:50) 6.6 0 1.4 0 5.2
14-10-2019 12.9 (12:10) 8.8 (00:00) 10.8 14.44 (15:50) 7.5 (15:50) 23.5 3.8 16.4 2.7 0.6
13-10-2019 15.8 (01:10) 11.2 (00:00) 13.5 13.89 (08:00) 8.33 (01:40) 26.2 7.1 7 4.7 7.4
12-10-2019 18.3 (15:20) 11.9 (00:00) 15.1 12.5 (15:30) 6.39 (17:30) 0 0 0 0 0
11-10-2019 21.3 (15:50) 7.7 (00:00) 14.5 7.22 (15:40) 4.17 (15:40) 0 0 0 0 0
10-10-2019 21.1 (17:00) 8.1 (00:00) 14.6 6.11 (16:00) 3.61 (21:30) 0 0 0 0 0
09-10-2019 17.9 (16:30) 7.7 (00:00) 12.8 8.33 (17:10) 3.89 (16:20) 0 0 0 0 0
08-10-2019 19.4 (00:00) 9.9 (00:00) 14.6 10.83 (11:50) 7.22 (11:50) 2.3 0 2.1 0.2 0
07-10-2019 23.6 (17:00) 8.5 (00:00) 16.1 -- (--) -- (--) 0 0 0 0 0
06-10-2019 21.2 (17:30) 12.2 (00:00) 16.7 5 (20:30) 3.33 (21:40) 0.6 0.5 0.1 0 0
05-10-2019 18.3 (15:50) 9.3 (00:00) 13.8 5.83 (13:40) 3.61 (13:50) 0 0 0 0 0
04-10-2019 17.9 (16:00) 10.5 (00:00) 14.2 6.67 (02:40) 5 (02:40) 0.3 0.2 0 0 0.1
03-10-2019 18 (18:00) 8.3 (00:00) 13.2 6.67 (13:10) 4.17 (13:30) 0.8 0 0 0 0.8
02-10-2019 19.1 (17:20) 11.4 (00:00) 15.3 5.83 (07:00) 2.78 (20:10) 0 0 0 0 0
01-10-2019 19.9 (15:20) 13.6 (00:00) 16.8 9.72 (15:20) 6.11 (15:30) 0.6 0.6 0 0 0
30-09-2019 19.1 (15:30) 16.3 (00:00) 17.7 8.89 (16:20) 5 (16:20) 1.5 0 1.4 0.1 0
29-09-2019 17.4 (17:30) 11.6 (00:00) 14.5 10.28 (11:50) 6.39 (10:50) 4.5 0 0.7 2.9 0.9
28-09-2019 21 (16:50) 7.1 (00:00) 14 6.67 (19:40) 4.17 (19:40) 0 0 0 0 0
27-09-2019 19.9 (16:40) 11.3 (00:00) 15.6 7.78 (05:10) 4.72 (05:10) 4.1 0.4 3.7 0 0
26-09-2019 19.5 (14:30) 14.1 (00:00) 16.8 10.28 (17:30) 6.11 (15:10) 0 0 0 0 0
25-09-2019 17.2 (16:10) 13.1 (00:00) 15.2 7.78 (15:10) 5 (16:10) 0 0 0 0 0
24-09-2019 19.4 (15:10) 13.3 (00:00) 16.3 15.28 (05:00) 8.33 (01:50) 19 16.8 1.5 0 0.7
23-09-2019 16.7 (14:20) 13.8 (00:00) 15.3 15 (16:20) 8.89 (15:50) 2.9 0 0 1.6 1.3
22-09-2019 19 (16:00) 12.6 (00:00) 15.8 13.33 (00:30) 7.22 (00:50) 3.3 3.3 0 0 0

Gráficas

Temp. máximas Temp. mínimas Temp. medias Precipitaciones Rachas de viento máximas Velocidades máximas media en intervalos de 10 minutos

Datos horarios

Fecha y hora oficial Temperatura (ºC) Velocidad del viento (km/h) Dirección del viento Racha (km/h) Dirección de racha Precipitación (mm) Presión (hPa) Tendencia (hPa) Humedad (%)
2019-10-21 23:00:00 7.2 4 Norte 8 Norte 0 976.1 0.8 97
2019-10-21 22:00:00 8.1 4 Norte 11 Norte 0 975.9 1.1 97
2019-10-21 21:00:00 8.8 6 Norte 15 Norte 0 975.8 1.2 94
2019-10-21 20:00:00 8.9 7 Norte 18 Norte 0 975.3 0.6 88
2019-10-21 19:00:00 10.5 8 Norte 18 Norte 0 974.8 -0.2 80
2019-10-21 18:00:00 11.1 10 Norte 21 Norte 0 974.6 -0.7 82
2019-10-21 17:00:00 10.8 15 Norte 24 Norte 0.6 974.7 -1.1 89
2019-10-21 16:00:00 11.1 12 Norte 22 Noroeste 0 975 -1.2 87
2019-10-21 15:00:00 12.9 3 Sudeste 11 Norte 0 975.3 -0.9 71
2019-10-21 14:00:00 11.1 4 Nordeste 11 Sudeste 0 975.8 -0.5 92
2019-10-21 13:00:00 9.1 4 Este 9 Norte 0 976.2 0.2 100
2019-10-21 12:00:00 8.3 4 Sudeste 11 Sur 0 976.2 0.9 100
2019-10-21 11:00:00 7.2 3 Sudeste 8 Sudeste 0 976.3 0.8 100
2019-10-21 10:00:00 6.9 2 Sudeste 8 Sur 0 976 0.6 100
2019-10-21 09:00:00 6.4 4 Sur 9 Sur 0 975.3 0.5 100
2019-10-21 08:00:00 6.4 3 Oeste 9 Noroeste 0 975.5 0.5 100
2019-10-21 07:00:00 6.7 2 Norte 5 Norte 0 975.4 0.3 100
2019-10-21 06:00:00 7 2 Sudeste 5 Sudeste 0 974.8 -0.1 100
2019-10-21 05:00:00 7.4 -- -- -- -- 0 975 0.2 100
2019-10-21 04:00:00 5.6 5 Sur 9 Noroeste 0 975.1 0.5 100
2019-10-21 03:00:00 7 8 Noroeste 11 Oeste 0 974.9 0.1 100
2019-10-21 02:00:00 7.8 5 Noroeste 13 Noroeste 0 974.8 0.4 100
2019-10-21 01:00:00 8.3 9 Noroeste 13 Norte 0 974.6 0.7 99
2019-10-21 00:00:00 8.8 6 Noroeste 9 Noroeste 0 974.8 1.4 99
2019-10-20 23:00:00 7.9 5 Noroeste 15 Norte 0 974.4 1.6 100
2019-10-20 22:00:00 9 11 Noroeste 17 Noroeste 0 973.9 1.8 98
2019-10-20 21:00:00 9.5 12 Noroeste 18 Noroeste 0 973.4 1.9 97
2019-10-20 20:00:00 10.6 9 Norte 24 Noroeste 0 972.8 1.6 91
2019-10-20 19:00:00 11.5 15 Norte 24 Norte 0.6 972.1 1.5 88
2019-10-20 18:00:00 11.9 8 Norte 22 Norte 0 971.5 1.1 89
2019-10-20 17:00:00 12.1 19 Norte 26 Noroeste 0 971.2 0.5 84
2019-10-20 16:00:00 12.1 15 Noroeste 24 Noroeste 0 970.6 0.3 90
2019-10-20 15:00:00 12.6 10 Noroeste 18 Noroeste 0 970.4 0.2 88
2019-10-20 14:00:00 11.1 0 Calma 21 Noroeste 0.3 970.7 0.7 98
2019-10-20 13:00:00 11.5 7 Sur 13 Sur 0.3 970.3 1 98
2019-10-20 12:00:00 11.5 6 Norte 21 Oeste 0 970.2 1.7 92
2019-10-20 11:00:00 8.4 5 Este -- -- 0 970 1.9 100
2019-10-20 10:00:00 7.6 2 Sur 9 Oeste 0.6 969.3 2.1 100
2019-10-20 09:00:00 6.9 3 Oeste 11 Este 0 968.5 1.7 100
2019-10-20 08:00:00 7.7 4 Noroeste 15 Oeste 0.1 968.1 1.6 100
2019-10-20 07:00:00 8 11 Noroeste 22 Noroeste 0 967.2 0.7 99
2019-10-20 06:00:00 8.4 12 Noroeste 22 Noroeste 0 966.8 0.6 99
2019-10-20 05:00:00 8.6 11 Noroeste 22 Norte 0.9 966.5 0.4 99
2019-10-20 04:00:00 8.8 7 Norte 15 Noroeste 0.5 966.5 0.7 99
2019-10-20 03:00:00 8.9 9 Noroeste 13 Noroeste 0.3 966.2 1 100
2019-10-20 02:00:00 8.9 3 Norte 13 Norte 0.1 966.1 1.5 100
2019-10-20 01:00:00 9 10 Norte 21 Norte 0.9 965.8 1.7 98
2019-10-20 00:00:00 8.6 9 Norte 17 Norte 0 965.2 1.4 97
2019-10-19 23:00:00 8.9 9 Norte 22 Norte 0 964.6 1.4 95
2019-10-19 22:00:00 9.4 13 Norte 24 Norte 0.2 964.1 1.3 98
2019-10-19 21:00:00 9.5 15 Norte 26 Norte 2.9 963.8 1.6 100
2019-10-19 20:00:00 9.5 13 Norte 24 Norte 0.9 963.2 1.5 99
2019-10-19 19:00:00 10.1 14 Norte 22 Norte 0.7 962.8 1.3 97
2019-10-19 18:00:00 10.8 11 Norte 17 Noroeste 0 962.2 0.2 94
2019-10-19 17:00:00 10.9 5 Norte 26 Norte 0.1 961.7 -1.1 96
2019-10-19 16:00:00 10.6 13 Norte 26 Norte 2.3 961.5 -2 100
2019-10-19 15:00:00 11.1 3 Nordeste 9 Nordeste 0.1 962 -1.7 100
2019-10-19 14:00:00 10.6 2 Este 9 Nordeste 1.1 962.8 -1.4 100
2019-10-19 13:00:00 10.4 3 Sudeste 13 Este 1.6 963.5 -0.9 100
2019-10-19 12:00:00 10.8 2 Este 8 Sudeste 2 963.7 -0.3 100
2019-10-19 11:00:00 10.6 3 Noroeste 5 Noroeste 1.5 964.2 -0.2 100
2019-10-19 10:00:00 10.8 0 Calma 8 Norte 2.1 964.4 -0.2 100
2019-10-19 09:00:00 10.9 0 Calma 5 Sudeste 2.1 964 -1.1 100
2019-10-19 08:00:00 11 2 Norte 5 Norte 2 964.4 -1.2 100
2019-10-19 07:00:00 10.9 0 Calma 4 Norte 0.6 964.6 -1.8 100
2019-10-19 06:00:00 11 0 Calma 8 Sudeste 0.2 965.1 -1.7 100
2019-10-19 05:00:00 11.3 0 Calma 9 Sur 0.1 965.6 -1.4 100
2019-10-19 04:00:00 11.4 6 Sudoeste 15 Oeste 0.1 966.4 -1.1 98
2019-10-19 03:00:00 11.5 10 Oeste 18 Oeste 1 966.8 -1 100
2019-10-19 02:00:00 11.9 7 Oeste 15 Oeste 0.9 967 -1.1 100
2019-10-19 01:00:00 12.2 8 Oeste 15 Oeste 2 967.5 -1 100
2019-10-19 00:00:00 12.4 10 Oeste 21 Oeste 6.7 967.8 -1.1 99
2019-10-18 23:00:00 12.5 10 Sudoeste 24 Sudoeste 4.7 968.1 -1.1 100
2019-10-18 22:00:00 12.7 13 Sudoeste 30 Sudoeste 0.7 968.5 -1.1 99
2019-10-18 21:00:00 12.4 16 Sudoeste 30 Sudoeste 4.5 968.9 -1.3 100
2019-10-18 20:00:00 12.6 17 Sudoeste 42 Sur 1.2 969.2 -1.4 99
2019-10-18 19:00:00 12.7 13 Sudoeste 32 Sudoeste 0.8 969.6 -1.7 98
2019-10-18 18:00:00 12.9 15 Sudoeste 32 Sudoeste 0.9 970.2 -1.8 99
2019-10-18 17:00:00 13.2 12 Sur 26 Sudoeste 0 970.6 -2.1 98
2019-10-18 16:00:00 13.4 15 Sudoeste 32 Sudoeste 0.1 971.3 -2.1 95
2019-10-18 15:00:00 13.3 13 Sudoeste 35 Sudoeste 0.1 972 -1.7 97
2019-10-18 14:00:00 13.5 13 Sudoeste 24 Sudoeste 0 972.7 -1.1 97
2019-10-18 13:00:00 12.9 12 Sudoeste 26 Sudoeste 0 973.4 -0.2 98
2019-10-18 12:00:00 12.4 10 Sudoeste 26 Sudoeste 0 973.7 0.3 100
2019-10-18 11:00:00 11.9 9 Sudoeste 18 Sur 0.7 973.8 0.1 100
2019-10-18 10:00:00 11.6 7 Sudoeste 13 Sur 0.2 973.6 0 100
2019-10-18 09:00:00 11.5 7 Sur 21 Sudoeste 0 973.4 -0.1 100
2019-10-18 08:00:00 11.5 10 Sur 17 Sur 0 973.7 0.1 100
2019-10-18 07:00:00 11.4 8 Sur 15 Sur 0 973.6 -0.1 100
2019-10-18 06:00:00 11.2 6 Sur 18 Sur 0 973.5 -0.3 100
2019-10-18 05:00:00 11.1 12 Sur 21 Sur 0 973.6 0.1 100
2019-10-18 04:00:00 11.1 10 Sur 17 Sudoeste 0 973.7 0 100
2019-10-18 03:00:00 11.4 10 Sur 24 Sudoeste 0.3 973.8 -0.2 100
2019-10-18 02:00:00 11.5 7 Sur 18 Sudoeste 0 973.5 -0.3 98
2019-10-18 01:00:00 11.3 10 Sur 13 Sur 0 973.7 0.1 98
2019-10-18 00:00:00 11 10 Sur 17 Sur 0 974 0.7 99
2019-10-17 23:00:00 11.4 12 Sudoeste 18 Sudoeste 0 973.8 0.8 98
2019-10-17 22:00:00 11.6 10 Sudoeste 18 Sudoeste 0 973.6 0.9 97
2019-10-17 21:00:00 11.6 9 Sur 15 Sur 0 973.3 0.6 96
2019-10-17 20:00:00 12.5 8 Sur 18 Sudoeste 0 973 0.3 92
2019-10-17 19:00:00 13.3 9 Sudoeste 22 Sudoeste 0 972.7 -0.1 89
2019-10-17 18:00:00 13.9 12 Sudoeste 22 Sudoeste 0 972.7 -0.4 88
2019-10-17 17:00:00 13.6 12 Sudoeste 22 Sudoeste 0 972.7 -0.4 90
2019-10-17 16:00:00 14.2 13 Sur 24 Sudoeste 0 972.8 -0.2 89
2019-10-17 15:00:00 13.5 14 Sudoeste 32 Oeste 0 973.1 0.1 92
2019-10-17 14:00:00 14.6 17 Sudoeste 35 Sudoeste 0 973.1 0 83
2019-10-17 13:00:00 14.2 17 Sudoeste 30 Sudoeste 0 973 0.2 88
2019-10-17 12:00:00 13.9 14 Sudoeste 24 Sudoeste 0 973 1.1 91
2019-10-17 11:00:00 12.7 11 Sur 18 Sur 0 973.1 1.9 98
2019-10-17 10:00:00 12.3 10 Sur 21 Sudoeste 0 972.8 2.5 98
2019-10-17 09:00:00 12.2 10 Sur 18 Sudoeste 0 971.9 2 98
2019-10-17 08:00:00 12.6 7 Oeste 26 Oeste 0 971.2 1.1 96
2019-10-17 07:00:00 14.3 15 Oeste 26 Oeste 0 970.3 0.3 99
2019-10-17 06:00:00 14.5 11 Sudoeste 24 Sudoeste 0 969.9 -0.2 98
2019-10-17 05:00:00 14.6 12 Sudoeste 28 Sudoeste 0 970.1 0.4 98
2019-10-17 04:00:00 14.8 8 Oeste 21 Sudoeste 0 970 0.3 99
2019-10-17 03:00:00 15 12 Sudoeste 24 Sudoeste 0 970.1 0.5 100
2019-10-17 02:00:00 15.1 13 Sudoeste 28 Sudoeste 0 969.7 0.4 100
2019-10-17 01:00:00 15.4 14 Sudoeste 26 Oeste 0 969.7 0.6 100
2019-10-17 00:00:00 15.3 11 Sudoeste 21 Sudoeste 1.2 969.6 0.6 100
2019-10-16 23:00:00 15.4 11 Sur 28 Sudoeste 0.6 969.3 0.6 100
2019-10-16 22:00:00 15.3 13 Sudoeste 24 Sudoeste 1.1 969.1 0.3 100
2019-10-16 21:00:00 14.9 16 Sur 41 Sudoeste 0.9 969 0.5 100
2019-10-16 20:00:00 14.8 22 Sur 35 Sudoeste 7.8 968.7 -0.1 100
2019-10-16 19:00:00 14.5 15 Sudoeste 45 Sur 14 968.8 0 100
2019-10-16 18:00:00 14.4 15 Sur 52 Sur 6.2 968.5 -0.6 100
2019-10-16 17:00:00 14.7 22 Sur 46 Sudoeste 5.6 968.8 -1.1 100
2019-10-16 16:00:00 14.3 23 Sur 50 Sur 4.2 968.8 -1.3 100
2019-10-16 15:00:00 14.2 26 Sur 45 Sur 4.6 969.1 -1.2 100
2019-10-16 14:00:00 14.1 27 Sur 48 Sur 3.5 969.9 -0.6 100
2019-10-16 13:00:00 14 26 Sur 46 Sur 3 970.1 -0.4 100
2019-10-16 12:00:00 13.8 28 Sur 52 Sur 2.3 970.3 0 100
2019-10-16 11:00:00 13.6 26 Sur 58 Sur 1.5 970.5 -0.1 99
2019-10-16 10:00:00 13.5 27 Sur 46 Sudoeste 2.1 970.5 -0.4 100
2019-10-16 09:00:00 13.4 23 Sur 39 Sur 3 970.3 -0.7 99
2019-10-16 08:00:00 13 20 Sur 50 Sur 1.8 970.6 -0.6 99
2019-10-16 07:00:00 13.1 22 Sur 42 Sur 2.2 970.9 -0.6 100
2019-10-16 06:00:00 13.1 29 Sur 48 Sur 1.5 971 -1 99
2019-10-16 05:00:00 13 25 Sur 48 Sur 1.1 971.2 -1.1 99
2019-10-16 04:00:00 13 25 Sur -- -- -- 971.5 -1.2 98
2019-10-16 03:00:00 13 29 Sur 48 Sur 0.3 972 -1 98
2019-10-16 02:00:00 12.8 28 Sur 45 Sur 0 972.3 -1 98
2019-10-16 01:00:00 12.8 29 Sur 48 Sudoeste 0.5 972.7 -0.6 98
2019-10-16 00:00:00 12.4 24 Sur 42 Sur 2.2 973 -0.2 100
2019-10-15 23:00:00 12.4 26 Sur 46 Sur 0.8 973.3 -0.1 99
2019-10-15 22:00:00 12.4 22 Sur 45 Sur 0.7 973.3 -0.2 98
2019-10-15 21:00:00 12.6 26 Sur 46 Sur 0.1 973.2 -0.1 96
2019-10-15 20:00:00 12.8 23 Sudoeste 42 Sudoeste 0 973.4 0 96
2019-10-15 19:00:00 12.5 19 Sudoeste 42 Sudoeste 1.4 973.5 -0.4 98
2019-10-15 18:00:00 13.6 22 Sur 42 Sur 0 973.3 -1.1 87
2019-10-15 17:00:00 14.1 22 Sur 45 Sudoeste 0 973.4 -1.2 85
2019-10-15 16:00:00 13.9 23 Sur 41 Sudoeste 0 973.9 -1.3 84
2019-10-15 15:00:00 14 21 Sudoeste 50 Sudoeste 0 974.4 -0.9 84
2019-10-15 14:00:00 13.9 20 Sur 39 Sur 0 974.6 -0.9 85
2019-10-15 13:00:00 13.2 16 Sudoeste 42 Sur 0 975.2 -0.4 87
2019-10-15 12:00:00 12.5 13 Sur 28 Sur 0 975.3 0.3 92
2019-10-15 11:00:00 11.1 13 Sur 22 Sur 0 975.5 0.4 98
2019-10-15 10:00:00 10.2 10 Sudoeste 17 Sur 1.4 975.6 0.6 100
2019-10-15 09:00:00 10.2 10 Sur 18 Sudoeste 0 975 0 97
2019-10-15 08:00:00 9.8 11 Sudoeste 17 Sudoeste 0 975.1 0.2 96
2019-10-15 07:00:00 9.1 13 Sudoeste 22 Sudoeste 0 975 -0.2 99
2019-10-15 06:00:00 9.4 14 Sudoeste 21 Sudoeste 0 975 -0.2 98
2019-10-15 05:00:00 9.1 13 Sudoeste 18 Sur 0 974.9 -0.3 99
2019-10-15 04:00:00 9.8 12 Sudoeste 24 Sudoeste 0 975.2 0.3 95
2019-10-15 03:00:00 9.6 13 Sudoeste 21 Sudoeste 0 975.2 0.6 95
2019-10-15 02:00:00 9.2 13 Sudoeste 21 Sudoeste 0 975.2 1 95
2019-10-15 01:00:00 9 11 Sudoeste 17 Sudoeste 0 974.9 1.4 96
2019-10-15 00:00:00 8.9 11 Sudoeste 17 Sur 0 974.6 1.4 96
2019-10-14 23:00:00 9.8 10 Sudoeste 21 Sudoeste 0 974.2 1.8 91
2019-10-14 22:00:00 9.8 13 Sudoeste 21 Sudoeste 0 973.5 2.1 88
2019-10-14 21:00:00 9.5 10 Sudoeste 18 Oeste 0 973.2 2.9 88
2019-10-14 20:00:00 10 10 Oeste 26 Oeste 0 972.4 2.8 89
2019-10-14 19:00:00 10.4 15 Oeste 28 Sudoeste 0.6 971.4 2.2 88
2019-10-14 18:00:00 11.9 14 Oeste 42 Noroeste 0 970.3 2 80
2019-10-14 17:00:00 11.7 12 Oeste 30 Oeste 0 969.6 1.5 85
2019-10-14 16:00:00 9.1 17 Oeste 52 Sudoeste 1.6 969.2 1.9 91
2019-10-14 15:00:00 12.8 15 Oeste 32 Oeste 0 968.3 2.2 82
2019-10-14 14:00:00 11.4 19 Noroeste 28 Noroeste 0 968.1 2.8 86
2019-10-14 13:00:00 10.2 9 Oeste 39 Noroeste 1.1 967.3 2.7 91
2019-10-14 12:00:00 12.2 10 Sudoeste 22 Sudoeste 2.4 966.1 2.2 97
2019-10-14 11:00:00 10.8 8 Oeste 21 Sur 4.1 965.3 2.3 100
2019-10-14 10:00:00 10.7 16 Sur 30 Sudoeste 1.7 964.6 1.1 100
2019-10-14 09:00:00 10.9 13 Sudoeste 28 Sudoeste 6.8 963.9 -0.1 100
2019-10-14 08:00:00 10.6 9 Sur 21 Sudeste 1.3 963 -1.2 100
2019-10-14 07:00:00 10.6 10 Sur 22 Sur 0.1 963.5 -1.5 100
2019-10-14 06:00:00 10.6 7 Sudeste 15 Sur 0 964 -1.2 100
2019-10-14 05:00:00 10.5 10 Sur 17 Sur 0 964.2 -1.6 100
2019-10-14 04:00:00 10.4 8 Sur 13 Sur 0.2 965 -1.3 100
2019-10-14 03:00:00 10.3 9 Sur 15 Sur 1.2 965.2 -1.6 100
2019-10-14 02:00:00 10.6 12 Sur 17 Sur 1.5 965.8 -1.5 100
2019-10-14 01:00:00 10.8 11 Sur 21 Sudeste 0.9 966.3 -1.4 100
2019-10-14 00:00:00 11.3 7 Sudeste 13 Sur 1 966.8 -0.7 100
2019-10-13 23:00:00 11.4 8 Sur 13 Sur 1.1 967.3 -0.4 100
2019-10-13 22:00:00 11.3 5 Sudeste 13 Sudoeste 1.8 967.7 0.2 100
2019-10-13 21:00:00 11.6 4 Oeste 18 Oeste 0.7 967.5 -0.1 97
2019-10-13 20:00:00 12.2 12 Oeste 22 Oeste 1.7 967.7 -0.2 99
2019-10-13 19:00:00 12.4 8 Oeste 17 Oeste 1.1 967.5 -0.6 99
2019-10-13 18:00:00 12.7 10 Noroeste 15 Oeste 2 967.6 -0.9 99
2019-10-13 17:00:00 13.8 8 Oeste 15 Oeste 1.2 967.9 -1 97
2019-10-13 16:00:00 13.9 5 Sudoeste 9 Sudoeste 0.8 968.1 -0.8 97
2019-10-13 15:00:00 13.9 5 Sudoeste 13 Sur 0.6 968.5 -0.6 93
2019-10-13 14:00:00 14.7 6 Oeste 26 Oeste 0.1 968.9 0.5 89
2019-10-13 13:00:00 14.7 8 Sur 15 Sur 0 968.9 1.1 90
2019-10-13 12:00:00 14.1 7 Sur 15 Sur 0 969.1 2.5 96
2019-10-13 11:00:00 13.6 4 Sudoeste 24 Oeste 0 968.4 2.9 95
2019-10-13 10:00:00 13.4 5 Oeste 24 Oeste 0 967.8 3.4 98
2019-10-13 09:00:00 13.7 12 Oeste 41 Sur 0 966.6 2.5 97
2019-10-13 08:00:00 15 29 Sudoeste 50 Sudoeste 0.9 965.5 1.9 99
2019-10-13 07:00:00 14.6 19 Sur 35 Sur 6.1 964.4 -0.4 100
2019-10-13 06:00:00 14.4 11 Sur 42 Sudoeste 7.1 964.1 -1.3 100
2019-10-13 05:00:00 15.4 27 Sur 46 Sur 0 963.6 -2.3 90
2019-10-13 04:00:00 14.9 24 Sur 41 Sur 0 964.8 -1.5 93
2019-10-13 03:00:00 15.5 26 Sur 48 Sur 0 965.4 -1.3 84
2019-10-13 02:00:00 15.7 26 Sur 48 Sur 0 965.9 -1 83
2019-10-13 01:00:00 15.5 20 Sur 35 Sur 0 966.3 -0.6 82
2019-10-13 00:00:00 15.1 17 Sur 39 Sur 0 966.7 -0.6 84
2019-10-12 23:00:00 15.2 15 Sur 32 Sur 0 966.9 -0.5 84
2019-10-12 22:00:00 15.1 18 Sur 37 Sur 0 966.9 -0.5 85
2019-10-12 21:00:00 15.4 17 Sur 37 Sur 0 967.3 -0.2 86
2019-10-12 20:00:00 15.6 18 Sur 39 Sur 0 967.4 -0.4 84
2019-10-12 19:00:00 16.2 22 Sudoeste 42 Sudoeste 0 967.4 -0.5 79
2019-10-12 18:00:00 16.8 23 Sudoeste 39 Sudoeste 0 967.5 -1.1 80
2019-10-12 17:00:00 16.9 17 Sudoeste 41 Sudoeste 0 967.8 -1.1 79
2019-10-12 16:00:00 17.1 21 Sudoeste 45 Sudoeste 0 967.9 -1.6 78
2019-10-12 15:00:00 17.4 15 Sudoeste 37 Sur 0 968.6 -1.1 79
2019-10-12 14:00:00 17.3 20 Sur 32 Sur 0 968.9 -0.7 77
2019-10-12 13:00:00 16.3 16 Sur 32 Sur 0 969.5 -0.1 78
2019-10-12 12:00:00 15.2 12 Sur 30 Sur 0 969.7 0.4 85
2019-10-12 11:00:00 15 16 Sur 26 Sur 0 969.6 0.5 86
2019-10-12 10:00:00 14.2 10 Sur 26 Sudoeste 0 969.6 0.3 89
2019-10-12 09:00:00 13.4 8 Sur 18 Sur 0 969.3 -0.1 95
2019-10-12 08:00:00 13.1 10 Sur 15 Sur 0 969.1 -0.7 97
2019-10-12 07:00:00 12.6 10 Sur 18 Sur 0 969.3 -1.3 98
2019-10-12 06:00:00 13 13 Sur 18 Sur 0 969.4 -1.8 96
2019-10-12 05:00:00 12.7 4 Sudoeste 11 Sur 0 969.8 -1.7 99
2019-10-12 04:00:00 12.4 6 Sur 11 Sur 0 970.6 -1.6 100
2019-10-12 03:00:00 12.5 5 Sur 9 Sur 0 971.2 -1.3 100
2019-10-12 02:00:00 12.7 5 Sur 13 Sur 0 971.5 -0.9 100
2019-10-12 01:00:00 12.2 4 Sur 8 Sur 0 972.2 -0.2 100
2019-10-12 00:00:00 12.8 7 Sur 17 Sur 0 972.5 0.2 98
2019-10-11 23:00:00 13.2 12 Sur 18 Sur 0 972.4 0.4 98
2019-10-11 22:00:00 13.4 5 Oeste 13 Sudoeste 0 972.4 0.3 96
2019-10-11 21:00:00 14.3 5 Sudoeste 11 Sudoeste 0 972.3 -0.2 93
2019-10-11 20:00:00 15.7 5 Sudoeste 24 Sudoeste 0 972 -0.7 84
2019-10-11 19:00:00 18.1 12 Sudoeste 22 Oeste 0 972.1 -0.8 80
2019-10-11 18:00:00 19.8 12 Sudoeste 22 Sudoeste 0 972.5 -1 74
2019-10-11 17:00:00 20.8 11 Sudoeste 26 Sudoeste 0 972.7 -1.5 68
2019-10-11 16:00:00 20.9 13 Sudoeste 26 Oeste 0 972.9 -1.7 66
2019-10-11 15:00:00 20.4 15 Sudoeste 24 Sudoeste 0 973.5 -1.3 67
2019-10-11 14:00:00 19.5 11 Sur 18 Sur 0 974.2 -1.1 71
2019-10-11 13:00:00 18 9 Sur 13 Sur 0 974.6 -0.3 79
2019-10-11 12:00:00 15.7 6 Sur 11 Sur 0 974.8 0.2 85
2019-10-11 11:00:00 12.5 3 Sudeste 5 Sudeste 0 975.3 0.8 100
2019-10-11 10:00:00 9.4 3 Oeste 5 Oeste 0 974.9 0.7 100
2019-10-11 09:00:00 8.1 3 Sudeste 8 Oeste 0 974.6 0.2 100
2019-10-11 08:00:00 8.4 3 Norte 5 Norte 0 974.5 -0.3 100
2019-10-11 07:00:00 9.2 3 Sudeste 5 Sudeste 0 974.2 -0.7 100
2019-10-11 06:00:00 10 0 Calma 11 Noroeste 0 974.4 -0.8 100
2019-10-11 05:00:00 10.8 10 Noroeste 13 Noroeste 0 974.8 -0.7 100
2019-10-11 04:00:00 11.3 3 Sur 9 Sur 0 974.9 -1.2 100
2019-10-11 03:00:00 12 3 Sudeste 8 Sudeste 0 975.2 -1.2 100
2019-10-11 02:00:00 13 3 Este 9 Nordeste 0 975.5 -1.2 100
2019-10-11 01:00:00 13.2 6 Norte 15 Norte 0 976.1 -0.4 100
2019-10-11 00:00:00 13.3 8 Norte 13 Norte 0 976.4 0.1 100
2019-10-10 23:00:00 13.3 10 Norte 17 Norte 0 976.7 0.5 100
2019-10-10 22:00:00 13.1 12 Norte 18 Norte 0 976.5 0.5 99
2019-10-10 21:00:00 13.5 13 Norte 18 Norte 0 976.3 0.2 96
2019-10-10 20:00:00 15.8 13 Norte 21 Norte 0 976.2 -0.6 89
2019-10-10 19:00:00 19 9 Norte 18 Norte 0 976 -1.3 77
2019-10-10 18:00:00 20.3 9 Norte 17 Norte 0 976.1 -2 71
2019-10-10 17:00:00 20.9 5 Nordeste 18 Nordeste 0 976.8 -2.1 64
2019-10-10 16:00:00 20.3 9 Norte 22 Norte 0 977.3 -2.2 62
2019-10-10 15:00:00 19.5 6 Norte 21 Nordeste 0 978.1 -1.8 65
2019-10-10 14:00:00 18.2 5 Este 15 Nordeste 0 978.9 -1.3 69
2019-10-10 13:00:00 16.8 5 Nordeste 15 Este 0 979.5 -0.6 73
2019-10-10 12:00:00 14.8 4 Nordeste 11 Nordeste 0 979.9 0.3 79
2019-10-10 11:00:00 11.9 0 Calma 11 Este 0 980.2 0.8 90
2019-10-10 10:00:00 9.9 3 Norte 9 Norte 0 980.1 0.7 97
2019-10-10 09:00:00 8.9 2 Norte 11 Norte 0 979.6 0.1 99
2019-10-10 08:00:00 9 4 Norte 11 Norte 0 979.4 -0.4 99
2019-10-10 07:00:00 9 2 Norte 9 Norte 0 979.4 -0.8 100
2019-10-10 06:00:00 8.8 0 Calma 5 Norte 0 979.5 -0.9 100
2019-10-10 05:00:00 9 0 Calma 5 Este 0 979.8 -0.7 100
2019-10-10 04:00:00 8.8 0 Calma 5 Norte 0 980.2 -0.7 100
2019-10-10 03:00:00 9.3 0 Calma 5 Este 0 980.4 -0.6 100
2019-10-10 02:00:00 9.9 0 Calma 11 Norte 0 980.5 -0.5 99
2019-10-10 01:00:00 10.9 8 Norte 13 Norte 0 980.9 -0.1 97
2019-10-10 00:00:00 11.3 6 Norte 13 Norte 0 981 0.2 95
2019-10-09 23:00:00 11.6 8 Norte 13 Norte 0 981 0.6 93
2019-10-09 22:00:00 11 0 Calma 18 Norte 0 981 0.8 95
2019-10-09 21:00:00 12.5 12 Norte 22 Norte 0 980.8 1 88
2019-10-09 20:00:00 13.9 9 Norte 18 Norte 0 980.4 0.2 79
2019-10-09 19:00:00 15.9 12 Norte 26 Norte 0 980.2 -0.3 68
2019-10-09 18:00:00 17.1 13 Norte 30 Norte 0 979.8 -0.8 62
2019-10-09 17:00:00 17.4 11 Norte 24 Noroeste 0 980.2 -0.6 64
2019-10-09 16:00:00 17 9 Norte 21 Norte 0 980.5 -0.7 65
2019-10-09 15:00:00 16.3 10 Noroeste 18 Noroeste 0 980.6 -0.7 71
2019-10-09 14:00:00 15.8 9 Norte 24 Norte 0 980.8 -0.6 73
2019-10-09 13:00:00 13.7 7 Norte 17 Norte 0 981.2 0.5 87
2019-10-09 12:00:00 12.2 4 Sudeste 9 Sudeste 0 981.3 1.1 100
2019-10-09 11:00:00 10.8 3 Sudeste 11 Sur 0 981.4 1.7 100
2019-10-09 10:00:00 10.1 5 Sur 9 Sur 0 980.7 1.1 100
2019-10-09 09:00:00 9.2 3 Sur -- -- -- 980.2 0.6 100
2019-10-09 08:00:00 8.6 3 Sur 5 Sur 0 979.7 0 100
2019-10-09 07:00:00 7.9 4 Sur 8 Sur 0 979.6 0 100
2019-10-09 06:00:00 8.9 0 Calma 5 Oeste 0 979.6 -0.2 100
2019-10-09 05:00:00 7.9 2 Norte 4 Norte 0 979.7 -0.1 100
2019-10-09 04:00:00 9.1 5 Sur 8 Sur 0 979.6 -0.1 100
2019-10-09 03:00:00 9.8 0 Calma -- -- 0 979.8 0.2 100
2019-10-09 02:00:00 9.8 4 Oeste -- -- 0 979.8 0 100
2019-10-09 01:00:00 10.1 2 Oeste 5 Noroeste 0 979.7 0.2 100
2019-10-09 00:00:00 10.3 3 Noroeste 11 Norte 0 979.6 0.5 100
2019-10-08 23:00:00 11.4 10 Norte 17 Norte 0 979.8 1.1 96
2019-10-08 22:00:00 12.2 11 Norte 21 Norte 0 979.5 1.3 92
2019-10-08 21:00:00 12.7 10 Norte 21 Norte 0 979.1 1 87
2019-10-08 20:00:00 14 14 Norte 28 Norte 0 978.7 0.7 78
2019-10-08 19:00:00 15.2 9 Norte 18 Norte 0 978.2 0.2 89
2019-10-08 18:00:00 14.6 13 Norte 33 Norte 0 978.1 0.1 90
2019-10-08 17:00:00 14.9 19 Norte 30 Norte 0 978 -0.1 95
2019-10-08 16:00:00 16 15 Norte 24 Norte 0 978 0 92
2019-10-08 15:00:00 16 8 Norte 28 Norte 0 978 0.1 94
2019-10-08 14:00:00 14.9 21 Norte 32 Norte 0.1 978.1 1 100
2019-10-08 13:00:00 15.5 23 Norte 30 Norte 0.1 978 1.4 100
2019-10-08 12:00:00 15.7 21 Norte 39 Noroeste 0.7 977.9 1.6 100
2019-10-08 11:00:00 17.6 10 Sudoeste 17 Sur 0.3 977.1 0.7 100
2019-10-08 10:00:00 17.1 13 Sur 21 Sur 0.7 976.6 0.3 100
2019-10-08 09:00:00 16.9 11 Sudoeste 21 Sur 0.3 976.3 -0.1 100
2019-10-08 08:00:00 17.1 11 Sur 17 Sudoeste 0.1 976.4 -0.3 100
2019-10-08 07:00:00 17.2 9 Sudoeste 13 Sudoeste 0 976.3 -0.7 100
2019-10-08 06:00:00 16.9 7 Sur 11 Sur 0 976.4 -1.1 100
2019-10-08 05:00:00 16.9 5 Sur 11 Sur 0 976.7 -0.9 100
2019-10-08 04:00:00 17.3 6 Sur 17 Sur 0 977 -1.1 100
2019-10-08 03:00:00 17.6 9 Sur 13 Sur 0 977.5 -0.8 100
2019-10-08 02:00:00 18.3 7 Sur 13 Oeste 0 977.6 -1 96
2019-10-08 01:00:00 18.7 5 Oeste 9 Oeste 0 978.1 -0.2 93
2019-10-08 00:00:00 19.4 5 Sudoeste 17 Oeste 0 978.3 0.5 88
2019-10-07 23:00:00 19.2 8 Oeste 15 Oeste 0 978.6 0.7 91
2019-10-07 22:00:00 19.7 8 Oeste 17 Oeste 0 978.3 0.1 90
2019-10-07 21:00:00 19.9 9 Oeste 15 Noroeste 0 977.8 -0.3 89
2019-10-07 20:00:00 20.7 9 Noroeste 13 Noroeste 0 977.9 -0.4 84
2019-10-07 19:00:00 21.2 10 Noroeste 17 Norte 0 978.2 -0.1 81
2019-10-07 18:00:00 21.4 13 Noroeste 18 Noroeste 0 978.1 -0.8 81
2019-10-07 17:00:00 23.2 3 Sudoeste 13 Oeste 0 978.3 -1 67
2019-10-07 16:00:00 22.9 6 Sudoeste 15 Oeste 0 978.3 -1.2 68
2019-10-07 15:00:00 21.6 8 Noroeste 18 Noroeste 0 978.9 -0.5 69
2019-10-07 14:00:00 20.8 6 Oeste 24 Oeste 0 979.3 0 63
2019-10-07 13:00:00 18.9 6 Oeste 11 Noroeste 0 979.5 0.3 72
2019-10-07 12:00:00 17.2 3 Sudoeste 13 Sur 0 979.4 0.3 82
2019-10-07 11:00:00 13.8 6 Sur 11 Sur 0 979.3 0.1 94
2019-10-07 10:00:00 11.3 5 Sur 9 Sur 0 979.2 0.5 100
2019-10-07 09:00:00 9.4 5 Sur 8 Sur 0 979.1 0.8 100
2019-10-07 08:00:00 9.7 0 Calma -- -- 0 979.2 1 100
2019-10-07 07:00:00 10.6 3 Sur -- -- 0 978.7 0.1 100
2019-10-07 06:00:00 11 0 Calma 4 Sur 0 978.3 -0.8 100
2019-10-07 05:00:00 10.7 0 Calma 8 Sur 0 978.2 -1.1 100
2019-10-07 04:00:00 11.5 4 Sur -- -- 0 978.6 -1.3 100
2019-10-07 03:00:00 11.1 0 Calma -- -- 0 979.1 -0.8 99
2019-10-07 02:00:00 11.4 5 Oeste 8 Noroeste 0 979.3 -0.8 99
2019-10-07 01:00:00 12 4 Oeste 9 Oeste 0 979.9 -0.3 98
2019-10-07 00:00:00 12.3 5 Noroeste 11 Noroeste 0 979.9 -0.1 97
2019-10-06 23:00:00 13.2 9 Noroeste 15 Norte 0 980.1 0.4 97
2019-10-06 22:00:00 14.1 11 Norte 17 Noroeste 0 980.2 0.9 94
2019-10-06 21:00:00 15.7 7 Norte 18 Norte 0 980 0.7 90
2019-10-06 20:00:00 16.8 6 Noroeste 13 Oeste 0 979.7 0.4 83
2019-10-06 19:00:00 18.7 2 Norte 8 Norte 0 979.3 -0.1 74
2019-10-06 18:00:00 20.4 2 Nordeste 9 Nordeste 0 979.3 -0.9 67
2019-10-06 17:00:00 20.4 4 Norte 11 Norte 0 979.3 -1 64
2019-10-06 16:00:00 19.9 5 Sudeste 11 Sudeste 0 979.4 -1.1 68
2019-10-06 15:00:00 19.1 4 Sudeste 13 Sudeste 0 980.2 -0.2 70
2019-10-06 14:00:00 16.6 0 Calma 13 Norte 0 980.3 -0.1 86
2019-10-06 13:00:00 16.5 4 Norte 9 Norte 0 980.5 0.6 91
2019-10-06 12:00:00 15.3 4 Sudeste 11 Sudoeste 0 980.4 1.2 97
2019-10-06 11:00:00 14.1 0 Calma 8 Norte 0 980.4 1.7 100
2019-10-06 10:00:00 13.4 0 Calma 4 Nordeste 0 979.9 1.7 100
2019-10-06 09:00:00 12.9 0 Calma 5 Norte 0.1 979.2 0.6 100
2019-10-06 08:00:00 12.9 0 Calma 8 Sur 0 978.7 0.4 100
2019-10-06 07:00:00 12.8 5 Sur 8 Sur 0 978.2 -0.2 100
2019-10-06 06:00:00 12.9 0 Calma 4 Sudeste 0.2 978.6 0 100
2019-10-06 05:00:00 13 0 Calma 8 Norte 0.3 978.3 -0.4 98
2019-10-06 04:00:00 13.2 3 Norte 8 Noroeste 0 978.4 -0.7 94
2019-10-06 03:00:00 12.8 3 Sudeste 11 Sur 0 978.6 -0.5 96
2019-10-06 02:00:00 13 8 Sur 11 Sudeste 0 978.7 -0.1 97
2019-10-06 01:00:00 13.6 4 Sur 9 Sur 0 979.1 0.7 96
2019-10-06 00:00:00 13.8 4 Sur 9 Sur 0 979.1 1 94
2019-10-05 23:00:00 12.8 0 Calma 11 Oeste 0 978.8 1.2 96
2019-10-05 22:00:00 14 6 Oeste 13 Oeste 0 978.4 1.4 91
2019-10-05 21:00:00 14.4 6 Oeste 13 Oeste 0 978.1 1.3 90
2019-10-05 20:00:00 15.7 7 Oeste 21 Oeste 0 977.6 0.8 84
2019-10-05 19:00:00 16.7 5 Sudoeste 8 Sudoeste 0 977 0.2 79
2019-10-05 18:00:00 17.2 3 Noroeste 18 Noroeste 0 976.8 -0.2 71
2019-10-05 17:00:00 17.2 12 Noroeste 17 Noroeste 0 976.8 -0.3 71
2019-10-05 16:00:00 17.9 9 Noroeste 18 Noroeste 0 976.8 -0.2 69
2019-10-05 15:00:00 16.8 11 Oeste 18 Oeste 0 977 -0.1 72
2019-10-05 14:00:00 16.3 9 Noroeste 21 Noroeste 0 977.1 0 74
2019-10-05 13:00:00 16.6 10 Sur 17 Sur 0 977 0.4 73
2019-10-05 12:00:00 14.6 4 Oeste 9 Noroeste 0 977.1 1.1 80
2019-10-05 11:00:00 13.8 4 Sur 8 Sur 0 977.1 1.6 93
2019-10-05 10:00:00 11.5 3 Oeste 8 Oeste 0 976.6 1.5 97
2019-10-05 09:00:00 10.4 5 Oeste 9 Oeste 0 976 0.6 100
2019-10-05 08:00:00 10.8 8 Oeste 9 Oeste 0 975.5 0.1 100
2019-10-05 07:00:00 11.4 0 Calma 5 Este 0 975.1 -0.8 100
2019-10-05 06:00:00 11.1 3 Sur 8 Sudeste 0 975.4 -0.9 100
2019-10-05 05:00:00 10.8 3 Sudeste 5 Sudeste 0 975.4 -1 99
2019-10-05 04:00:00 11 0 Calma 9 Noroeste 0 975.9 -0.4 98
2019-10-05 03:00:00 10.3 8 Noroeste 11 Noroeste 0 976.3 0 99
2019-10-05 02:00:00 9.7 7 Noroeste 11 Oeste 0 976.4 0 98
2019-10-05 01:00:00 10 7 Noroeste 11 Noroeste 0 976.3 -0.1 97
2019-10-05 00:00:00 10.6 9 Oeste 15 Oeste 0 976.3 0.2 95
2019-10-04 23:00:00 11.2 7 Noroeste 11 Noroeste 0 976.4 0.4 94
2019-10-04 22:00:00 12 9 Norte 13 Norte 0.1 976.4 0.7 88
2019-10-04 21:00:00 14.2 5 Norte 11 Norte 0 976.1 0.2 89
2019-10-04 20:00:00 16 6 Norte 17 Noroeste 0 976 -0.2 86
2019-10-04 19:00:00 17.3 12 Norte 18 Noroeste 0 975.7 -0.8 81
2019-10-04 18:00:00 17.5 4 Noroeste 13 Oeste 0 975.9 -1.2 77
2019-10-04 17:00:00 17.7 5 Oeste 15 Norte 0 976.2 -1.1 76
2019-10-04 16:00:00 17.7 6 Norte 15 Norte 0 976.5 -0.9 77
2019-10-04 15:00:00 16.6 4 Norte 13 Norte 0 977.1 -0.7 84
2019-10-04 14:00:00 16.5 5 Norte 11 Norte 0 977.3 -0.5 88
2019-10-04 13:00:00 15.4 2 Nordeste 8 Norte 0 977.4 0 92
2019-10-04 12:00:00 15 3 Norte 13 Norte 0 977.8 0.4 93
2019-10-04 11:00:00 15.1 5 Noroeste 13 Noroeste 0 977.8 1 96
2019-10-04 10:00:00 14.3 0 Calma 15 Oeste 0 977.4 0.7 100
2019-10-04 09:00:00 14 0 Calma 8 Sur 0 977.4 0.6 100
2019-10-04 08:00:00 14.1 6 Sur 9 Sur 0 976.8 -0.1 100
2019-10-04 07:00:00 14.2 4 Sur 8 Sur 0 976.7 0 100
2019-10-04 06:00:00 14.5 0 Calma 5 Oeste 0 976.8 -0.3 100
2019-10-04 05:00:00 14.5 0 Calma 8 Norte 0 976.9 -0.4 100
2019-10-04 04:00:00 14.6 7 Norte 11 Noroeste 0 976.7 -0.8 100
2019-10-04 03:00:00 14.2 7 Norte 24 Oeste 0.1 977.1 -0.6 100
2019-10-04 02:00:00 15.5 5 Oeste 13 Sudoeste 0.1 977.3 -0.5 100
2019-10-04 01:00:00 15.6 6 Sudoeste 15 Sudoeste 0 977.5 -0.3 100
2019-10-04 00:00:00 15.7 7 Sudoeste 11 Sudoeste 0 977.7 0.1 100
2019-10-03 23:00:00 15.8 3 Sudoeste 8 Sudoeste 0.4 977.8 0.5 100
2019-10-03 22:00:00 15.7 3 Sudoeste 9 Sudoeste 0.1 977.8 0.5 100
2019-10-03 21:00:00 15.9 3 Sudoeste 17 Sudoeste 0.1 977.6 0.5 100
2019-10-03 20:00:00 16 8 Sudoeste 18 Sudoeste 0.2 977.3 -0.1 100
2019-10-03 19:00:00 16.4 6 Sudoeste 21 Sur 0 977.3 -0.3 98
2019-10-03 18:00:00 17.8 11 Sur 18 Sur 0 977.1 -0.6 88
2019-10-03 17:00:00 16.4 9 Sur 18 Sur 0 977.4 -0.8 94
2019-10-03 16:00:00 17 9 Sur 24 Sur 0 977.6 -0.9 87
2019-10-03 15:00:00 17.1 11 Sudoeste 22 Sur 0 977.7 -1 85
2019-10-03 14:00:00 16.3 14 Sur 24 Sur 0 978.2 -0.1 85
2019-10-03 13:00:00 16.1 14 Sudoeste 22 Sudoeste 0 978.5 0.4 83
2019-10-03 12:00:00 14.3 12 Sur 22 Sur 0 978.7 0.9 90
2019-10-03 11:00:00 12 9 Sur 17 Sur 0 978.3 1 100
2019-10-03 10:00:00 9.4 5 Sur 9 Sur 0 978.1 0.7 100
2019-10-03 09:00:00 8.9 3 Sur 8 Sur 0 977.8 0.4 100
2019-10-03 08:00:00 9.1 5 Sur 17 Sur 0 977.3 -0.1 100
2019-10-03 07:00:00 9 8 Sur 11 Sur 0 977.4 0.1 100
2019-10-03 06:00:00 10.3 4 Sudeste 11 Sur 0 977.4 0.1 100
2019-10-03 05:00:00 10 8 Sur 11 Sur 0 977.4 -0.2 100
2019-10-03 04:00:00 10.4 0 Calma 9 Sudeste 0 977.3 -0.7 100
2019-10-03 03:00:00 11.1 7 Sudeste 11 Sudeste 0 977.3 -1.1 100
2019-10-03 02:00:00 11.4 3 Sudeste 8 Sudeste 0 977.6 -1 99
2019-10-03 01:00:00 12 0 Calma 4 Nordeste 0 978 -0.9 98
2019-10-03 00:00:00 11.7 3 Noroeste 8 Noroeste 0 978.4 -0.5 97
2019-10-02 23:00:00 12.6 7 Noroeste 11 Norte 0 978.6 -0.1 94
2019-10-02 22:00:00 13.4 6 Norte 11 Norte 0 978.9 0.2 92
2019-10-02 21:00:00 14.1 6 Norte 15 Norte 0 978.9 0.3 90
2019-10-02 20:00:00 15.3 9 Norte 15 Norte 0 978.7 0 85
2019-10-02 19:00:00 17 8 Norte 13 Norte 0 978.7 -0.4 78
2019-10-02 18:00:00 16.8 2 Nordeste 15 Norte 0 978.6 -0.5 80
2019-10-02 17:00:00 18.1 6 Norte 13 Norte 0 978.7 -0.7 73
2019-10-02 16:00:00 17.8 2 Este 15 Norte 0 979.1 -0.4 69
2019-10-02 15:00:00 17.9 7 Norte 13 Norte 0 979.1 -0.6 66
2019-10-02 14:00:00 16.9 3 Sudeste 9 Norte 0 979.4 -0.2 70
2019-10-02 13:00:00 16.5 4 Nordeste 17 Norte 0 979.5 0.6 72
2019-10-02 12:00:00 16.6 3 Noroeste 17 Noroeste 0 979.7 1.6 76
2019-10-02 11:00:00 14.7 9 Noroeste 15 Noroeste 0 979.6 2.1 88
2019-10-02 10:00:00 13.6 9 Oeste 15 Oeste 0 978.9 1.3 92
2019-10-02 09:00:00 13.1 5 Oeste 9 Oeste 0 978.1 0.8 90
2019-10-02 08:00:00 12.9 4 Oeste 15 Oeste 0 977.5 -0.2 91
2019-10-02 07:00:00 12.7 4 Oeste 21 Oeste 0 977.6 -0.3 97
2019-10-02 06:00:00 12.8 4 Oeste 9 Oeste 0 977.3 -0.6 97
2019-10-02 05:00:00 13.2 4 Oeste 13 Oeste 0 977.7 -0.4 95
2019-10-02 04:00:00 13.4 6 Oeste 11 Oeste 0 977.9 -0.1 91
2019-10-02 03:00:00 12.7 7 Oeste 15 Oeste 0 977.9 0 97
2019-10-02 02:00:00 14 5 Oeste 11 Oeste 0 978.1 0.4 94
2019-10-02 01:00:00 14.1 5 Sudoeste 13 Oeste 0 978 0.9 94
2019-10-02 00:00:00 14 4 Sudoeste 11 Oeste 0 977.9 1.5 94
2019-10-01 23:00:00 14 4 Oeste 15 Oeste 0 977.7 1.8 93
2019-10-01 22:00:00 14.4 11 Oeste 17 Oeste 0 977.1 1.6 90
2019-10-01 21:00:00 15.3 8 Oeste 21 Oeste 0 976.4 1.3 88
2019-10-01 20:00:00 16.2 10 Oeste 21 Oeste 0 975.9 1.1 85
2019-10-01 19:00:00 17.1 13 Oeste 24 Oeste 0 975.5 0.7 78
2019-10-01 18:00:00 18.7 16 Oeste 30 Oeste 0 975.1 0.3 68
2019-10-01 17:00:00 18.3 12 Oeste 28 Sudoeste 0 974.8 -0.2 77
2019-10-01 16:00:00 19.3 17 Oeste 35 Oeste 0 974.8 -0.2 72
2019-10-01 15:00:00 18.7 18 Sudoeste 32 Sudoeste 0 974.8 -0.1 74
2019-10-01 14:00:00 19.1 15 Sudoeste 30 Sudoeste 0 975 0.7 72
2019-10-01 13:00:00 18.3 13 Oeste 33 Oeste 0 975 1.2 78
2019-10-01 12:00:00 17.5 15 Oeste 30 Sudoeste 0 974.9 1.7 87
2019-10-01 11:00:00 16 10 Sudoeste 22 Sudoeste 0 974.3 1.7 94
2019-10-01 10:00:00 15.7 12 Sudoeste 26 Oeste 0 973.8 1.4 96
2019-10-01 09:00:00 15.5 11 Sudoeste 21 Sudoeste 0 973.2 1.1 98
2019-10-01 08:00:00 15.3 10 Sudoeste 18 Oeste 0 972.6 0.6 97
2019-10-01 07:00:00 15.8 12 Sudoeste 26 Sudoeste 0 972.4 0 98
2019-10-01 06:00:00 15.9 13 Sudoeste 28 Sudoeste 0 972.1 -0.5 99
2019-10-01 05:00:00 15.8 12 Sudoeste 24 Sudoeste 0.4 972 -0.9 100
2019-10-01 04:00:00 15.5 13 Sudoeste 26 Sudoeste 0.2 972.4 -0.7 99
2019-10-01 03:00:00 16 18 Sur 30 Sur 0 972.6 -0.9 95
2019-10-01 02:00:00 16.2 14 Sur 24 Sur 0 972.9 -0.5 94
2019-10-01 01:00:00 16.2 8 Sur 18 Sudeste 0 973.1 -0.4 94
2019-10-01 00:00:00 16.4 6 Sur 13 Sur 0 973.5 0.3 94
2019-09-30 23:00:00 16.3 6 Sur 17 Sur 0 973.4 0.2 97
2019-09-30 22:00:00 16.6 8 Sudoeste 21 Sur 0 973.5 0.1 95
2019-09-30 21:00:00 16.7 13 Sudoeste 28 Sudoeste 0 973.2 -0.6 96
2019-09-30 20:00:00 17.3 11 Sudoeste 32 Sudoeste 0 973.2 -0.7 94
2019-09-30 19:00:00 18 12 Sur 26 Sudoeste 0 973.4 -0.7 93
2019-09-30 18:00:00 18.7 11 Sudoeste 30 Oeste 0 973.8 -0.7 92
2019-09-30 17:00:00 18.7 17 Sudoeste 32 Sudoeste 0 973.9 -1 93
2019-09-30 16:00:00 18.9 13 Sudoeste 26 Sur 0 974.1 -0.8 95
2019-09-30 15:00:00 18.3 16 Sudoeste 26 Sudoeste 0 974.5 -0.5 98
2019-09-30 14:00:00 18.4 17 Sudoeste 30 Sur 0.1 974.9 -0.1 99
2019-09-30 13:00:00 18.3 14 Sudoeste 26 Sur 0 974.9 0 100
2019-09-30 12:00:00 17.8 14 Sur 24 Sur 0 975 0.3 100
2019-09-30 11:00:00 17.5 12 Sur 24 Sur 0.1 975 0.5 100
2019-09-30 10:00:00 17.2 7 Sudoeste 15 Sur 0.8 974.9 0.3 100
2019-09-30 09:00:00 17.1 9 Sur 21 Sudoeste 0.3 974.7 0 100
2019-09-30 08:00:00 17.2 9 Sur 17 Sur 0.1 974.5 -0.2 100
2019-09-30 07:00:00 17.2 9 Sur 17 Sudoeste 0.1 974.6 -0.6 100
2019-09-30 06:00:00 17.3 9 Sur 18 Sudoeste 0 974.7 -1 100
2019-09-30 05:00:00 17.3 11 Sur 21 Sur 0 974.7 -1.3 100
2019-09-30 04:00:00 17.2 12 Sur 24 Sur 0 975.2 -1.1 100
2019-09-30 03:00:00 17 14 Sur 21 Sur 0 975.7 -0.8 100
2019-09-30 02:00:00 16.8 9 Sur 17 Sudoeste 0 976 -0.7 100
2019-09-30 01:00:00 16.9 11 Sur 17 Sur 0 976.3 -0.1 100
2019-09-30 00:00:00 16.9 9 Sudoeste 21 Sudoeste 0.1 976.5 0.5 100
2019-09-29 23:00:00 16.8 13 Sur 24 Sudoeste 0 976.7 0.9 100
2019-09-29 22:00:00 16.9 12 Sudoeste 22 Sudoeste 0 976.4 0.7 100
2019-09-29 21:00:00 16.9 12 Sudoeste 28 Sudoeste 0.4 976 0.5 100
2019-09-29 20:00:00 17.1 12 Sudoeste 24 Sudoeste 0.3 975.8 0.1 100
2019-09-29 19:00:00 17.3 11 Sudoeste 35 Sudoeste 0.1 975.7 0.1 100
2019-09-29 18:00:00 17.3 15 Sudoeste 33 Sudoeste 0 975.5 -0.2 100
2019-09-29 17:00:00 17.3 18 Sudoeste 30 Sudoeste 0.1 975.7 -0.3 100
2019-09-29 16:00:00 17.1 17 Sudoeste 28 Sudoeste 0.7 975.6 -0.3 100
2019-09-29 15:00:00 16.8 15 Sudoeste 32 Sudoeste 0.8 975.7 -0.2 100
2019-09-29 14:00:00 16.7 17 Sur 30 Sur 0.9 976 0.6 100
2019-09-29 13:00:00 16.7 16 Sudoeste 28 Sur 0.4 975.9 1 100
2019-09-29 12:00:00 16.1 17 Sudoeste 37 Sudoeste 0.1 975.9 1.3 100
2019-09-29 11:00:00 15.7 21 Sur 35 Sur 0.2 975.4 0.9 100
2019-09-29 10:00:00 15.4 16 Sur 32 Sur 0.2 974.9 0.2 100
2019-09-29 09:00:00 15 13 Sur 26 Sur 0.1 974.6 -0.2 100
2019-09-29 08:00:00 14.6 16 Sur 28 Sur 0 974.5 -0.7 100
2019-09-29 07:00:00 14 11 Sur 24 Sur 0.1 974.7 -1 100
2019-09-29 06:00:00 13.5 12 Sur 18 Sur 0 974.8 -1.1 99
2019-09-29 05:00:00 13.6 8 Sur 17 Sudoeste 0 975.2 -1.4 95
2019-09-29 04:00:00 13.2 5 Sur 17 Sur 0 975.7 -1 94
2019-09-29 03:00:00 13.2 14 Sur 21 Sur 0 975.9 -0.7 93
2019-09-29 02:00:00 12.4 9 Sur 21 Sur 0 976.6 0 96
2019-09-29 01:00:00 11.7 6 Sur 15 Sur 0 976.7 0.3 97
2019-09-29 00:00:00 12 11 Sur 21 Sur 0 976.6 0.3 97
2019-09-28 23:00:00 12.2 7 Sudoeste 21 Sur 0 976.6 0.6 93
2019-09-28 22:00:00 12.9 11 Sur 17 Sur 0 976.4 0.3 90
2019-09-28 21:00:00 14.3 9 Sudoeste 21 Sudoeste 0 976.3 0 83
2019-09-28 20:00:00 16.4 14 Sudoeste 24 Oeste 0 976 -0.7 76
2019-09-28 19:00:00 18.7 10 Sudoeste 22 Oeste 0 976.1 -0.9 63
2019-09-28 18:00:00 19.7 12 Sudoeste 22 Sudoeste 0 976.3 -1.2 63
2019-09-28 17:00:00 20.6 12 Sudoeste 21 Sudoeste 0 976.7 -1.6 62
2019-09-28 16:00:00 20 9 Oeste 18 Sur 0 977 -1.9 63
2019-09-28 15:00:00 19 11 Sur 18 Sur 0 977.5 -1.8 65
2019-09-28 14:00:00 17.9 6 Sur 13 Sur 0 978.3 -1.1 66
2019-09-28 13:00:00 16.3 7 Sur 13 Sudoeste 0 978.9 -0.2 69
2019-09-28 12:00:00 14.3 5 Sur 11 Sur 0 979.3 0.6 85
2019-09-28 11:00:00 12 3 Sudeste 13 Oeste 0 979.4 0.9 99
2019-09-28 10:00:00 7.9 7 Oeste 9 Oeste 0 979.1 0.4 100
2019-09-28 09:00:00 8.6 0 Calma 5 Sudeste 0 978.7 -0.3 100
2019-09-28 08:00:00 8.4 3 Sudeste 9 Sur 0 978.5 -0.8 100
2019-09-28 07:00:00 8.8 5 Sur 8 Sur 0 978.7 -0.8 100
2019-09-28 06:00:00 10.2 4 Sur 5 Sur 0 979 -0.6 100
2019-09-28 05:00:00 10.4 4 Sur 8 Sudeste 0 979.3 -0.7 100
2019-09-28 04:00:00 10.7 3 Sur 5 Sur 0 979.5 -0.5 100
2019-09-28 03:00:00 10.7 2 Sur -- -- 0 979.6 -0.3 97
2019-09-28 02:00:00 11.1 2 Sur 4 Sur 0 980 0.1 95
2019-09-28 01:00:00 10.6 0 Calma 2 Este 0 980 0.4 94
2019-09-28 00:00:00 11.3 0 Calma 13 Noroeste 0 979.9 0.6 94
2019-09-27 23:00:00 12.2 9 Noroeste 13 Noroeste 0 979.9 1 90
2019-09-27 22:00:00 12.9 7 Noroeste 11 Oeste 0 979.6 0.8 91
2019-09-27 21:00:00 14 5 Noroeste 13 Noroeste 0 979.3 0.8 88
2019-09-27 20:00:00 16.3 7 Oeste 17 Oeste 0 978.9 0.3 78
2019-09-27 19:00:00 17.4 12 Oeste 26 Oeste 0 978.8 0.3 74
2019-09-27 18:00:00 18.7 14 Oeste 22 Oeste 0 978.5 0 70
2019-09-27 17:00:00 18.3 12 Oeste 24 Oeste 0 978.6 -0.3 78
2019-09-27 16:00:00 18.4 9 Oeste 21 Oeste 0 978.5 -0.2 79
2019-09-27 15:00:00 18.4 9 Oeste 18 Oeste 0 978.5 0 77
2019-09-27 14:00:00 17.6 13 Oeste 24 Oeste 0 978.9 0.9 84
2019-09-27 13:00:00 16.5 10 Oeste 22 Sudoeste 0 978.7 1.2 100
2019-09-27 12:00:00 16.1 9 Sudoeste 15 Oeste 0.8 978.5 1.3 100
2019-09-27 11:00:00 14.9 9 Sudoeste 22 Sur 0.8 978 1.1 100
2019-09-27 10:00:00 14.7 12 Sur 18 Sur 0.3 977.5 0.6 100
2019-09-27 09:00:00 14.4 13 Sur 22 Sur 0.2 977.2 0.2 100
2019-09-27 08:00:00 14.3 16 Sur 28 Sur 0.5 976.9 -0.1 100
2019-09-27 07:00:00 14.4 12 Sudoeste 21 Sur 1.1 976.9 -0.6 100
2019-09-27 06:00:00 14.4 15 Sur 28 Sur 0.3 977 -0.9 100
2019-09-27 05:00:00 14.5 14 Sur 22 Sur 0 977 -1 100
2019-09-27 04:00:00 14.7 14 Sur 22 Sur 0 977.5 -0.9 100
2019-09-27 03:00:00 15 14 Sur 22 Sudoeste 0.1 977.9 -0.9 98
2019-09-27 02:00:00 15.3 14 Sur 22 Sur 0 978 -0.5 96
2019-09-27 01:00:00 15.1 12 Sur 18 Sur 0 978.4 0.1 95
2019-09-27 00:00:00 15.1 9 Sur 22 Sur 0 978.8 0.5 95
2019-09-26 23:00:00 15.2 13 Sur 22 Sur 0 978.5 0.6 93
2019-09-26 22:00:00 15.2 14 Sur 22 Sur 0 978.3 0.4 93
2019-09-26 21:00:00 15.9 10 Sudoeste 22 Sudoeste 0 978.3 0.7 90
2019-09-26 20:00:00 16.3 14 Sudoeste 28 Sudoeste 0 977.9 0.3 84
2019-09-26 19:00:00 17.6 13 Sudoeste 32 Sudoeste 0 977.9 0.1 79
2019-09-26 18:00:00 18.7 15 Sudoeste 37 Sudoeste 0 977.6 -0.1 73
2019-09-26 17:00:00 18.7 17 Sudoeste 35 Sur 0 977.6 -0.3 72
2019-09-26 16:00:00 18.7 15 Sudoeste 35 Sudoeste 0 977.8 -0.4 71
2019-09-26 15:00:00 18.6 21 Sudoeste 35 Sudoeste 0 977.7 -0.4 70
2019-09-26 14:00:00 18.6 19 Sudoeste 32 Sudoeste 0 977.9 0 73
2019-09-26 13:00:00 17.7 18 Sudoeste 33 Sudoeste 0 978.2 1.2 74
2019-09-26 12:00:00 17.1 16 Sudoeste 28 Sudoeste 0 978.1 1.1 85
2019-09-26 11:00:00 15.7 14 Sudoeste 22 Sudoeste 0 977.9 1.2 91
2019-09-26 10:00:00 15.1 10 Sur 18 Sur 0 977 0.5 96
2019-09-26 09:00:00 14.4 8 Sur 13 Sur 0 977 0.2 98
2019-09-26 08:00:00 14.4 6 Sur 13 Sur 0 976.7 -0.2 99
2019-09-26 07:00:00 14.4 9 Sur 17 Sur 0 976.5 -0.6 100
2019-09-26 06:00:00 14.4 5 Sur 17 Sudoeste 0 976.8 -0.4 100
2019-09-26 05:00:00 14.2 8 Sur 17 Sur 0 976.9 -0.7 100
2019-09-26 04:00:00 14.1 7 Sur 22 Sur 0 977.1 -0.7 100
2019-09-26 03:00:00 14.1 10 Sur 17 Sur 0 977.2 -0.7 99
2019-09-26 02:00:00 14.5 8 Sudoeste 18 Sur 0 977.6 -0.2 98
2019-09-26 01:00:00 14.5 12 Sudoeste 22 Sudoeste 0 977.8 0.2 97
2019-09-26 00:00:00 14.3 13 Sudoeste 21 Sudoeste 0 977.9 0.5 98
2019-09-25 23:00:00 14.4 10 Sudoeste 18 Sudoeste 0 977.8 0.6 98
2019-09-25 22:00:00 14.5 11 Sudoeste 24 Sudoeste 0 977.6 0.3 96
2019-09-25 21:00:00 14.8 11 Sudoeste 24 Sudoeste 0 977.4 0 95
2019-09-25 20:00:00 15.1 12 Sudoeste 24 Oeste 0 977.2 -0.1 91
2019-09-25 19:00:00 15.9 13 Sudoeste 24 Oeste 0 977.3 -0.4 84
2019-09-25 18:00:00 16.4 13 Sudoeste 26 Sudoeste 0 977.4 -0.5 84
2019-09-25 17:00:00 17 14 Sudoeste 28 Sudoeste 0 977.3 -1.1 82
2019-09-25 16:00:00 16.9 15 Sudoeste 28 Sudoeste 0 977.7 -0.9 82
2019-09-25 15:00:00 16.9 14 Sudoeste 26 Sudoeste 0 977.9 -0.8 81
2019-09-25 14:00:00 16.5 16 Sur 24 Sudoeste 0 978.4 0 85
2019-09-25 13:00:00 15.8 10 Sudoeste 21 Sudoeste 0 978.6 0.7 88
2019-09-25 12:00:00 15.2 11 Sudoeste 21 Sudoeste 0 978.7 1.1 93
2019-09-25 11:00:00 14.6 9 Sudoeste 21 Sudoeste 0 978.4 1.1 96
2019-09-25 10:00:00 13.9 10 Sudoeste 21 Oeste 0 977.9 0.8 97
2019-09-25 09:00:00 13.6 9 Sudoeste 15 Sudoeste 0 977.6 0.5 99
2019-09-25 08:00:00 13.2 8 Sudoeste 17 Sudoeste 0 977.3 0.1 100
2019-09-25 07:00:00 13.5 9 Sudoeste 18 Sudoeste 0 977.1 -0.5 100
2019-09-25 06:00:00 13.5 10 Sudoeste 21 Sudoeste 0 977.1 -0.6 100
2019-09-25 05:00:00 13.3 9 Sudoeste 17 Sudoeste 0 977.2 -0.3 100
2019-09-25 04:00:00 13.3 11 Sudoeste 18 Sudoeste 0 977.6 -0.2 100
2019-09-25 03:00:00 13.3 9 Sudoeste 18 Sudoeste 0 977.7 -0.2 99
2019-09-25 02:00:00 13.5 10 Sudoeste 17 Sudoeste 0 977.5 -0.3 97
2019-09-25 01:00:00 13.7 9 Sudoeste 15 Sudoeste 0 977.8 0.3 98
2019-09-25 00:00:00 13.5 9 Sudoeste 15 Sudoeste 0 977.9 0.8 98
2019-09-24 23:00:00 13.6 9 Sudoeste 18 Sudoeste 0.7 977.8 0.9 96
2019-09-24 22:00:00 13.9 10 Sudoeste 15 Sudoeste 0 977.5 1.2 91
2019-09-24 21:00:00 14.2 9 Sudoeste 22 Oeste 0 977.1 1 86
2019-09-24 20:00:00 15.4 10 Oeste 21 Oeste 0 976.9 1 80
2019-09-24 19:00:00 16.7 10 Oeste 32 Oeste 0 976.3 0.3 77
2019-09-24 18:00:00 17.7 17 Oeste 33 Oeste 0 976.1 0.4 67
2019-09-24 17:00:00 18.9 20 Oeste 35 Oeste 0 975.9 0.2 63
2019-09-24 16:00:00 18.8 18 Oeste 37 Sudoeste 0 976 0.2 69
2019-09-24 15:00:00 18.7 18 Oeste 35 Noroeste 0 975.7 0.2 72
2019-09-24 14:00:00 18.1 14 Sudoeste 33 Oeste 0 975.7 0.7 73
2019-09-24 13:00:00 17.6 12 Oeste 30 Oeste 0 975.8 1.6 85
2019-09-24 12:00:00 16.8 17 Oeste 30 Sudoeste 0 975.5 1.7 87
2019-09-24 11:00:00 16.8 13 Sudoeste 26 Sudoeste 0 975 1.7 90
2019-09-24 10:00:00 16.3 13 Sudoeste 26 Oeste 0 974.2 1.2 94
2019-09-24 09:00:00 16.3 12 Sudoeste 22 Oeste 0 973.8 1.3 96
2019-09-24 08:00:00 16.4 15 Oeste 30 Oeste 0.7 973.3 1.2 99
2019-09-24 07:00:00 16.7 12 Sudoeste 33 Sudoeste 0.8 973 1 100
2019-09-24 06:00:00 16.9 16 Sudoeste 50 Sudoeste 0 972.5 0.2 100
2019-09-24 05:00:00 17.2 28 Sudoeste 55 Sudoeste 2.8 972.1 -0.4 100
2019-09-24 04:00:00 16.2 23 Sur 41 Sur 7.6 972 -1 100
2019-09-24 03:00:00 15.8 19 Sur 37 Sur 2.3 972.3 -1.2 100
2019-09-24 02:00:00 15.6 28 Sur 45 Sur 3.7 972.5 -1.2 100
2019-09-24 01:00:00 15.6 27 Sur 45 Sudoeste 0.4 973 -1.1 98
2019-09-24 00:00:00 15.3 19 Sur 45 Sur 0.8 973.5 -0.7 99
2019-09-23 23:00:00 15.1 24 Sur 42 Sur 0.4 973.7 -0.5 98
2019-09-23 22:00:00 15.1 25 Sur 50 Sur 0.1 974.1 -0.3 98
2019-09-23 21:00:00 15.6 27 Sur 45 Sur 0 974.2 -0.5 94
2019-09-23 20:00:00 15.9 27 Sur 41 Sur 0 974.2 -0.8 92
2019-09-23 19:00:00 15.8 24 Sur 46 Sur 0 974.4 -0.6 94
2019-09-23 18:00:00 15.6 24 Sur 42 Sur 0.8 974.7 -0.4 97
2019-09-23 17:00:00 15.8 28 Sur 54 Sur 0.3 975 -0.4 95
2019-09-23 16:00:00 16.4 28 Sudoeste 52 Sudoeste 0.4 975 -0.6 89
2019-09-23 15:00:00 16.4 27 Sur 42 Sur 0.1 975.1 -0.5 90
2019-09-23 14:00:00 16.4 21 Sur 46 Sur 0 975.4 -0.5 84
2019-09-23 13:00:00 16 23 Sur 42 Sur 0 975.6 0.3 85
2019-09-23 12:00:00 16 19 Sur 42 Sur 0 975.6 0.2 84
2019-09-23 11:00:00 15.3 20 Sur 35 Sur 0 975.9 1.1 86
2019-09-23 10:00:00 14.5 17 Sur 30 Sur 0 975.3 0.9 88
2019-09-23 09:00:00 14.2 15 Sur 24 Sur 0 975.4 0.3 90
2019-09-23 08:00:00 14 14 Sur 24 Sur 0 974.8 -0.2 91
2019-09-23 07:00:00 13.9 13 Sur 30 Sur 0 974.4 -0.9 93
2019-09-23 06:00:00 14.1 12 Sur 24 Sur 0 975.1 -0.4 93
2019-09-23 05:00:00 14.2 13 Sur 22 Sur 0 975 -0.1 92
2019-09-23 04:00:00 14 14 Sur 26 Sur 0 975.3 0 93
2019-09-23 03:00:00 13.9 13 Sur 24 Sur 0 975.5 0.2 95
2019-09-23 02:00:00 13.9 10 Sur 28 Sur 0 975.1 -0.5 96
2019-09-23 01:00:00 13.9 9 Sur 18 Sur 0 975.3 0.4 96
2019-09-23 00:00:00 13.9 5 Sur 17 Sur 0 975.3 0.8 97
2019-09-22 23:00:00 14.1 9 Sur 21 Sur 0 975.6 1.2 96
2019-09-22 22:00:00 14.2 13 Sudoeste 21 Sudoeste 0 974.9 1.1 94
2019-09-22 21:00:00 14.7 13 Sudoeste 26 Oeste 0 974.5 1 91
2019-09-22 20:00:00 15.1 17 Sudoeste 30 Sudoeste 0 974.4 1.2 86
2019-09-22 19:00:00 16 18 Sudoeste 35 Sudoeste 0 973.8 1 78
2019-09-22 18:00:00 17.2 22 Sudoeste 39 Sudoeste 0 973.5 0.7 73
2019-09-22 17:00:00 18.2 21 Sudoeste 37 Sudoeste 0 973.2 0.5 70
2019-09-22 16:00:00 18.4 20 Sudoeste 35 Sudoeste 0 972.8 0.3 70
2019-09-22 15:00:00 17.9 21 Sudoeste 42 Sudoeste 0 972.8 0.7 73
2019-09-22 14:00:00 17.3 19 Sudoeste 41 Sur 0 972.7 1.1 80
2019-09-22 13:00:00 17.5 19 Sudoeste 35 Sudoeste 0 972.5 1.6 82
2019-09-22 12:00:00 16.4 19 Sudoeste 30 Sudoeste 0 972.1 2.2 83
2019-09-22 11:00:00 15.5 15 Sudoeste 28 Sur 0 971.6 2.1 90
2019-09-22 10:00:00 13.7 12 Sudoeste 22 Sudoeste 0 970.9 2.3 97
2019-09-22 09:00:00 13 13 Sudoeste 28 Sudoeste 0 969.9 1.6 98
2019-09-22 08:00:00 13.3 14 Sudoeste 26 Sudoeste 0 969.5 1.6 98
2019-09-22 07:00:00 13.3 14 Sudoeste 32 Sudoeste 0 968.6 1.1 97
2019-09-22 06:00:00 13.1 11 Sudoeste 22 Sudoeste 0 968.3 1.4 97
2019-09-22 05:00:00 13.1 12 Sudoeste 28 Sudoeste 0 967.9 1.3 96
2019-09-22 04:00:00 13.3 14 Sudoeste 37 Sudoeste 0 967.5 1.1 97
2019-09-22 03:00:00 12.6 18 Sudoeste 32 Sudoeste 0 966.9 1.1 98
2019-09-22 02:00:00 13.3 17 Sudoeste 42 Sudoeste 0.4 966.6 1.1 98
2019-09-22 01:00:00 13.9 24 Sudoeste 48 Oeste 2.9 966.4 1.2 96
2019-09-22 00:00:00 15 19 Sudoeste 46 Sudoeste 0.8 965.8 1 95